Fairbanks, AK (99709)

2:19 AM AKDT on April 23, 2017 (GMT -0800)
| | Change Station

Elev -9999 ft 0.00 °N, 0.00 °E | Updated 6 minutes ago

Clear
Clear
°F
Feels Like °F
N
Wind Variable Wind from North
Gusts mph

Today
High -- | Low -- °F
--% Chance of Precip.
Yesterday
High -- | Low -- °F
Precip. -- in
Pressure 29.84 in
Visibility 10.0 miles
Clouds Scattered Clouds 20000 ft
Dew Point Not available.
Humidity Not available.
Rainfall --
Snow Depth Not available.
5:45 AM 9:56 PM
Waning Crescent, 13% visible
METAR PAFA 230953Z 35011KT 10SM SCT200 03/M08 A2982 RMK AO2 SLP105 T00281078 VISNO NE
Pressure 29.84 in
Visibility 10.0 miles
Clouds Scattered Clouds 20000 ft
Dew Point Not available.
Humidity Not available.
Rainfall --
Snow Depth Not available.
5:45 AM 9:56 PM
Waning Crescent, 13% visible
METAR PAFA 230953Z 35011KT 10SM SCT200 03/M08 A2982 RMK AO2 SLP105 T00281078 VISNO NE

Get Severe Weather Alerts

Thanks for signing up!

Be on the lookout for a verification email in your inbox.

You'll start receiving the daily forecast at 8 AM.

×

10-Day Weather Forecast

Almanac

Astronomy

Apr. 23, 2017 Rise Set
Actual Time
Civil Twilight
Nautical Twilight
Astronomical Twilight
Moon
Length of Visible Light
Length of Day
Tomorrow will be .
, % of the Moon is Illuminated

Today's Extremes

State Highs State Lows

Community

WunderPhotos

WunderBlog® & News

Nearby

Air Quality

  Air Quality AQ Index Pollutant
Not available.

Snow Depth

Station Depth Elevation

Earthquake Activity

City Distance Mag. Time & Date
Minimum magnitude displayed is 2.5.

Coastal Water Temperatures

Place Temperature

Stations

Nearby Weather Stations

Station Location Temp. Windchill Dew Point Humidity Wind Precip. Elev Updated Type
                   

Watches & Warnings

There are currently no watches in effect.